Time;durP1;ratioP1;P1;durP2;ratioP2;P2;SDS_P1;SDS_P2;PMS_P1;PMS_P2;Temp;Humidity;BMP_temperature;BMP_pressure;BME280_temperature;BME280_humidity;BME280_pressure;Samples;Min_cycle;Max_cycle;Signal;HPM_P1;HPM_P2
2022/02/19 00:01:12;;;;;;;1.87;1.10;;;;;;;8.38;45.72;98188.72;5096073;28;41643;-80
2022/02/19 00:03:42;;;;;;;2.47;0.80;;;;;;;7.87;45.33;98117.22;5112702;28;42473;-78
2022/02/19 00:06:09;;;;;;;2.07;0.67;;;;;;;8.24;44.77;98193.06;5095922;28;43693;-79
2022/02/19 00:08:37;;;;;;;0.70;0.63;;;;;;;8.03;45.58;98197.06;5095593;28;42332;-78
2022/02/19 00:11:05;;;;;;;2.77;0.80;;;;;;;8.09;44.93;98215.13;5112833;28;39229;-78
2022/02/19 08:59:32;;;;;;;1.70;0.73;;;;;;;19.22;27.74;99083.75;5150405;27;20996;-78
2022/02/19 09:01:59;;;;;;;2.97;1.33;;;;;;;17.94;28.78;99106.22;5148554;27;38820;-79
2022/02/19 09:04:27;;;;;;;2.07;0.70;;;;;;;17.11;29.68;99101.88;5128639;27;40879;-78
2022/02/19 09:06:54;;;;;;;2.67;0.90;;;;;;;15.79;31.38;99083.47;5127692;27;43373;-80
2022/02/19 09:09:22;;;;;;;2.77;1.00;;;;;;;14.86;33.32;99071.22;5128464;27;41072;-79
2022/02/19 09:11:50;;;;;;;1.60;0.90;;;;;;;14.68;33.11;99066.34;5128188;27;40010;-78
2022/02/19 09:14:17;;;;;;;2.03;0.80;;;;;;;15.76;31.95;99073.03;5127979;27;40459;-78
2022/02/19 09:16:46;;;;;;;1.97;0.80;;;;;;;17.57;29.39;99104.09;5128480;27;41492;-79
2022/02/19 09:19:14;;;;;;;2.40;0.80;;;;;;;18.52;27.92;99122.47;5128023;27;41232;-78
2022/02/19 09:21:43;;;;;;;5.30;0.97;;;;;;;18.54;27.89;99077.59;5128385;27;40880;-79
2022/02/19 09:24:11;;;;;;;1.43;0.70;;;;;;;17.86;27.96;99128.38;5128026;27;42493;-78
2022/02/19 09:26:38;;;;;;;0.90;0.37;;;;;;;16.51;29.79;99114.03;5131384;27;44453;-78
2022/02/19 09:29:06;;;;;;;2.90;0.70;;;;;;;16.17;30.39;99110.63;5131138;27;42378;-78
2022/02/19 09:31:33;;;;;;;2.50;0.60;;;;;;;17.52;28.51;99130.44;5148868;27;39347;-78
2022/02/19 09:34:02;;;;;;;1.53;0.90;;;;;;;18.59;27.75;99131.66;5131581;27;44103;-78
2022/02/19 09:36:30;;;;;;;2.40;0.90;;;;;;;19.33;26.75;99138.13;5149912;27;43710;-78
2022/02/19 09:38:57;;;;;;;2.90;1.00;;;;;;;20.25;25.46;99159.78;5131191;27;42285;-79
2022/02/19 09:41:25;;;;;;;1.03;0.70;;;;;;;20.64;24.95;99154.19;5131502;27;39701;-78
2022/02/19 09:43:53;;;;;;;3.00;0.60;;;;;;;20.74;25.07;99171.13;5131098;27;41876;-78
2022/02/19 09:46:21;;;;;;;2.37;0.83;;;;;;;21.14;24.30;99179.56;5131064;27;43337;-78
2022/02/19 09:48:49;;;;;;;2.10;1.10;;;;;;;20.24;24.74;99179.59;5148456;27;42398;-80
2022/02/19 09:51:18;;;;;;;2.57;0.50;;;;;;;18.21;26.13;99140.47;5131157;27;40066;-79
2022/02/19 09:53:46;;;;;;;0.60;0.50;;;;;;;16.94;28.23;99152.44;5148084;27;40578;-78
2022/02/19 09:56:13;;;;;;;2.33;0.70;;;;;;;15.73;29.60;99153.38;5147005;27;43413;-76
2022/02/19 09:58:45;;;;;;;0.77;0.70;;;;;;;15.05;30.80;99147.06;5129077;27;41191;-79
2022/02/19 10:01:18;;;;;;;0.67;0.60;;;;;;;14.81;31.38;99137.41;5146326;27;39714;-79
2022/02/19 10:03:47;;;;;;;1.80;0.60;;;;;;;14.85;31.40;99144.19;5130924;27;43112;-79
2022/02/19 10:06:15;;;;;;;1.33;1.17;;;;;;;15.22;30.87;99153.75;5131151;27;43256;-78
2022/02/19 10:08:45;;;;;;;2.60;0.70;;;;;;;14.99;31.18;99144.00;5146473;27;42395;-78
2022/02/19 10:11:15;;;;;;;1.57;0.70;;;;;;;14.77;32.15;99135.94;5117073;27;38869;-78
2022/02/19 10:13:42;;;;;;;1.17;0.90;;;;;;;15.58;30.33;99154.59;5134305;27;42741;-77
2022/02/19 10:16:11;;;;;;;1.03;0.70;;;;;;;16.51;29.49;99164.00;5135762;27;42458;-78
2022/02/19 10:18:41;;;;;;;0.60;0.50;;;;;;;17.78;27.96;99175.56;5116670;27;41071;-77
2022/02/19 10:21:13;;;;;;;1.30;0.70;;;;;;;18.83;26.41;99191.16;5134606;27;40208;-79
2022/02/19 10:23:42;;;;;;;2.83;0.60;;;;;;;19.84;24.90;99198.72;5134303;27;41754;-78
2022/02/19 10:26:12;;;;;;;1.87;0.63;;;;;;;20.76;23.60;99206.81;5135214;27;42707;-78
2022/02/19 10:28:40;;;;;;;2.13;0.70;;;;;;;22.04;22.19;99229.66;5133755;27;41243;-80
2022/02/19 10:31:12;;;;;;;1.03;0.70;;;;;;;23.02;21.53;99230.91;5134163;27;38938;-77
2022/02/19 10:33:40;;;;;;;1.90;0.90;;;;;;;23.55;21.23;99213.44;5116279;27;44051;-80
2022/02/19 10:36:15;;;;;;;1.43;0.70;;;;;;;23.44;20.89;99230.81;5117018;27;42448;-78
2022/02/19 10:38:53;;;;;;;1.50;0.60;;;;;;;23.10;21.31;99236.34;5116319;27;42908;-78
2022/02/19 10:41:32;;;;;;;2.10;0.80;;;;;;;23.87;20.14;99248.56;5116618;27;38745;-79
2022/02/19 10:44:00;;;;;;;1.13;1.13;;;;;;;24.12;20.14;99248.50;5115826;27;40727;-78
2022/02/19 10:46:28;;;;;;;3.10;0.73;;;;;;;24.34;20.11;99247.84;5133650;27;43359;-78
2022/02/19 10:49:11;;;;;;;0.97;0.80;;;;;;;24.53;19.07;99252.81;5134758;27;42247;-79
2022/02/19 10:51:40;;;;;;;1.17;0.80;;;;;;;25.58;18.75;99250.56;5110224;28;40726;-78
2022/02/19 10:54:09;;;;;;;1.73;0.97;;;;;;;26.97;17.57;99267.94;5112766;28;41906;-77
2022/02/19 10:56:41;;;;;;;2.03;0.90;;;;;;;27.65;16.79;99255.75;5112738;28;43602;-78
2022/02/19 10:59:09;;;;;;;0.83;0.80;;;;;;;27.97;16.40;99267.94;5112459;28;43117;-79
2022/02/19 11:01:41;;;;;;;1.20;0.67;;;;;;;28.48;16.04;99267.69;5112593;28;40795;-79
2022/02/19 11:04:11;;;;;;;2.40;1.00;;;;;;;28.77;15.56;99267.44;5112738;28;41922;-80
2022/02/19 11:06:39;;;;;;;1.67;0.80;;;;;;;28.98;15.96;99257.47;5112956;28;43464;-78
2022/02/19 11:09:09;;;;;;;0.97;0.63;;;;;;;29.62;16.09;99255.16;5118000;27;42829;-80
2022/02/19 11:11:39;;;;;;;1.52;0.80;;;;;;;30.29;14.54;99270.50;5116102;27;38233;-78
2022/02/19 11:14:08;;;;;;;1.38;0.85;;;;;;;30.83;14.07;99272.06;5133230;27;42778;-79
2022/02/19 11:16:36;;;;;;;1.45;0.95;;;;;;;31.69;13.95;99265.13;5133157;27;42845;-79
2022/02/19 11:19:05;;;;;;;0.57;0.55;;;;;;;32.34;13.67;99273.88;5133055;27;42050;-80
2022/02/19 11:21:34;;;;;;;2.67;0.82;;;;;;;31.71;13.82;99251.19;5133246;27;40710;-79
2022/02/19 11:24:04;;;;;;;1.00;0.50;;;;;;;29.88;14.46;99246.13;5134220;27;42804;-79
2022/02/19 11:26:33;;;;;;;1.87;1.07;;;;;;;28.81;15.56;99225.09;5115704;27;41745;-81
2022/02/19 11:29:06;;;;;;;1.10;0.73;;;;;;;29.59;15.25;99200.97;5132994;27;41952;-79
2022/02/19 11:31:35;;;;;;;1.73;1.00;;;;;;;29.72;14.55;99238.34;5130041;27;40010;-81
2022/02/19 11:34:05;;;;;;;1.13;0.70;;;;;;;29.26;14.75;99236.38;5133159;27;41690;-78
2022/02/19 11:36:33;;;;;;;1.90;0.73;;;;;;;27.94;16.02;99216.63;5134083;27;44162;-78
2022/02/19 11:39:03;;;;;;;2.70;1.30;;;;;;;26.34;16.73;99216.91;5133708;27;42050;-78
2022/02/19 11:41:35;;;;;;;2.37;0.70;;;;;;;26.02;17.78;99208.09;5133287;27;38563;-79
2022/02/19 11:44:26;;;;;;;3.27;0.80;;;;;;;27.15;16.20;99219.44;5132957;27;41540;-78
2022/02/19 11:46:54;;;;;;;1.57;0.70;;;;;;;28.63;14.97;99226.69;5129934;27;42517;-78
2022/02/19 11:49:24;;;;;;;1.07;0.60;;;;;;;29.39;14.36;99241.06;5115738;27;43516;-79
2022/02/19 11:52:14;;;;;;;2.63;0.80;;;;;;;30.03;14.66;99222.19;5132590;27;39978;-77
2022/02/19 11:54:42;;;;;;;0.90;0.70;;;;;;;31.21;14.11;99225.59;5132100;27;41085;-78
2022/02/19 11:57:15;;;;;;;4.83;0.93;;;;;;;31.98;13.78;99225.25;5114271;27;45308;-79
2022/02/19 11:59:46;;;;;;;0.83;0.80;;;;;;;32.26;12.97;99227.56;5130570;27;42296;-78
2022/02/19 12:02:17;;;;;;;2.43;0.70;;;;;;;32.08;13.16;99224.75;5130654;27;40926;-78
2022/02/19 12:04:45;;;;;;;0.77;0.77;;;;;;;30.81;13.77;99223.03;5115158;27;40572;-76
2022/02/19 12:07:17;;;;;;;0.57;0.57;;;;;;;29.65;14.63;99220.09;5131966;27;41713;-78
2022/02/19 12:10:04;;;;;;;1.13;0.70;;;;;;;28.63;15.84;99200.28;5130810;27;43251;-78
2022/02/19 12:13:07;;;;;;;1.37;0.80;;;;;;;27.39;16.47;99201.88;5115956;27;39360;-77
2022/02/19 12:15:37;;;;;;;0.97;0.60;;;;;;;26.19;17.09;99207.91;5132434;27;42417;-76
2022/02/19 12:18:09;;;;;;;1.40;0.60;;;;;;;27.08;17.23;99198.63;5131855;27;42455;-76
2022/02/19 12:20:40;;;;;;;1.50;0.70;;;;;;;28.53;15.56;99197.09;5132298;27;43342;-76
2022/02/19 12:23:10;;;;;;;2.00;0.70;;;;;;;28.09;15.74;99206.44;5130766;27;40702;-77
2022/02/19 12:26:01;;;;;;;1.10;0.60;;;;;;;25.53;17.31;99185.16;5131097;27;42134;-78
2022/02/19 12:28:30;;;;;;;1.70;0.70;;;;;;;23.89;18.75;99180.75;5131029;27;42751;-78
2022/02/19 12:31:31;;;;;;;1.87;0.73;;;;;;;23.06;19.51;99170.16;5131191;27;42877;-78
2022/02/19 12:34:10;;;;;;;2.77;0.90;;;;;;;23.67;19.55;99158.00;5085589;27;39931;-78
2022/02/19 12:36:38;;;;;;;2.07;0.60;;;;;;;22.58;20.30;99163.63;5113738;27;44119;-78
2022/02/19 12:39:06;;;;;;;1.83;0.60;;;;;;;21.13;20.95;99150.13;5113436;27;43239;-77
2022/02/19 12:41:36;;;;;;;3.10;0.83;;;;;;;22.24;20.76;99151.19;5132134;27;42160;-77
2022/02/19 12:44:10;;;;;;;2.93;0.60;;;;;;;22.11;20.61;99135.47;5131831;27;40159;-79
2022/02/19 12:46:40;;;;;;;2.97;0.67;;;;;;;23.01;19.63;99145.47;5132056;27;41735;-78
2022/02/19 12:49:09;;;;;;;1.53;0.53;;;;;;;23.48;19.79;99142.97;5114670;27;43243;-80
2022/02/19 12:51:37;;;;;;;0.60;0.60;;;;;;;25.78;18.98;99129.66;5132053;27;43170;-78
2022/02/19 12:54:05;;;;;;;0.93;0.60;;;;;;;27.25;17.17;99145.66;5132029;27;38917;-77
2022/02/19 12:56:41;;;;;;;2.90;0.70;;;;;;;28.48;15.90;99147.78;5114176;27;40811;-80
2022/02/19 12:59:08;;;;;;;0.93;0.70;;;;;;;29.24;16.04;99137.53;5132402;27;42672;-77
2022/02/19 13:01:37;;;;;;;1.00;0.60;;;;;;;29.67;15.57;99151.63;5114564;27;41080;-78
2022/02/19 13:04:07;;;;;;;1.00;0.73;;;;;;;29.48;14.65;99133.34;5131327;27;39290;-78
2022/02/19 13:06:45;;;;;;;1.90;0.70;;;;;;;29.39;14.85;99146.38;5131670;27;43681;-78
2022/02/19 13:09:13;;;;;;;1.00;0.90;;;;;;;29.45;15.06;99158.34;5132883;27;43756;-78
2022/02/19 13:11:43;;;;;;;0.87;0.60;;;;;;;27.78;15.87;99135.25;5132408;27;41844;-79
2022/02/19 13:14:10;;;;;;;1.80;1.00;;;;;;;26.25;17.11;99137.41;5131471;27;39900;-79
2022/02/19 13:16:38;;;;;;;1.10;0.60;;;;;;;26.38;17.34;99136.75;5132371;27;42741;-77
2022/02/19 13:19:08;;;;;;;1.97;0.90;;;;;;;26.28;16.97;99130.78;5113983;27;41754;-77
2022/02/19 13:21:35;;;;;;;1.03;0.90;;;;;;;25.80;17.91;99133.03;5114082;27;43319;-77
2022/02/19 13:24:16;;;;;;;3.23;1.10;;;;;;;25.53;17.99;99120.06;5113897;27;40570;-77
2022/02/19 13:26:44;;;;;;;1.43;0.93;;;;;;;26.25;17.41;99126.53;5129592;27;41639;-78
2022/02/19 13:29:12;;;;;;;1.03;0.67;;;;;;;26.18;17.19;99130.22;5131312;27;42513;-79
2022/02/19 13:31:40;;;;;;;2.83;1.23;;;;;;;24.89;18.28;99128.53;5131372;27;41134;-78
2022/02/19 13:34:10;;;;;;;1.77;0.80;;;;;;;23.03;18.98;99077.78;5131241;27;40230;-78
2022/02/19 13:36:37;;;;;;;1.40;0.67;;;;;;;21.68;19.90;99122.91;5114332;27;42047;-77
2022/02/19 13:39:15;;;;;;;2.70;1.00;;;;;;;20.05;22.06;99096.31;5130388;27;43612;-78
2022/02/19 13:41:52;;;;;;;1.13;0.60;;;;;;;18.78;23.18;99082.56;5129723;27;42467;-79
2022/02/19 13:44:20;;;;;;;2.50;0.80;;;;;;;17.86;24.26;99098.03;5137338;27;40108;-78
2022/02/19 13:46:47;;;;;;;1.80;0.80;;;;;;;17.06;25.61;99097.91;5142692;27;40947;-79
2022/02/19 13:49:18;;;;;;;1.60;0.70;;;;;;;16.80;25.39;99092.94;5141384;27;43354;-77
2022/02/19 13:51:45;;;;;;;1.33;1.03;;;;;;;16.29;26.44;99075.84;5141316;27;41624;-78
2022/02/19 13:54:18;;;;;;;4.23;1.00;;;;;;;15.70;27.54;99082.38;5125059;27;39102;-79
2022/02/19 13:56:45;;;;;;;1.50;0.50;;;;;;;15.18;27.90;99082.09;5118709;27;42091;-79
2022/02/19 13:59:22;;;;;;;1.77;1.00;;;;;;;14.70;28.43;99072.44;5134093;27;42022;-79
2022/02/19 14:01:50;;;;;;;2.10;1.00;;;;;;;14.51;29.24;99063.25;5117647;27;41791;-78
2022/02/19 14:04:35;;;;;;;1.50;0.73;;;;;;;14.22;29.59;99062.72;5134498;27;39993;-79
2022/02/19 14:07:09;;;;;;;1.90;0.70;;;;;;;14.00;30.38;99056.31;5132649;27;42653;-81
2022/02/19 14:09:38;;;;;;;2.97;1.00;;;;;;;13.89;30.63;99042.09;5135687;27;42757;-76
2022/02/19 14:12:09;;;;;;;2.40;0.60;;;;;;;15.76;29.25;99065.88;5117089;27;41536;-80
2022/02/19 14:14:38;;;;;;;3.50;0.70;;;;;;;16.44;28.11;99069.25;5135673;27;40190;-78
2022/02/19 14:17:09;;;;;;;0.70;0.50;;;;;;;16.98;28.14;99063.75;5133836;27;42642;-77
2022/02/19 14:19:40;;;;;;;0.93;0.67;;;;;;;18.38;26.13;99055.81;5116915;27;44858;-77
2022/02/19 14:22:09;;;;;;;1.70;0.70;;;;;;;19.47;24.22;99082.25;5116705;27;42378;-78
2022/02/19 14:24:56;;;;;;;1.50;0.60;;;;;;;19.06;24.69;99083.50;5135203;27;40875;-77
2022/02/19 14:27:23;;;;;;;2.57;0.90;;;;;;;19.58;24.73;99080.28;5133700;27;42220;-78
2022/02/19 14:29:51;;;;;;;1.53;0.50;;;;;;;19.00;24.04;99096.50;5133871;27;43595;-78
2022/02/19 14:32:19;;;;;;;3.23;0.80;;;;;;;17.88;25.07;99096.94;5134778;27;42385;-78
2022/02/19 14:34:48;;;;;;;1.97;0.80;;;;;;;17.13;26.29;99099.06;5116936;27;39925;-77
2022/02/19 14:37:16;;;;;;;1.90;0.50;;;;;;;16.64;27.35;99083.63;5116573;27;40661;-77
2022/02/19 14:39:43;;;;;;;0.83;0.50;;;;;;;15.98;27.81;99085.50;5135077;27;42718;-77
2022/02/19 14:42:11;;;;;;;1.60;0.50;;;;;;;15.46;28.98;99077.13;5116290;27;42687;-77
2022/02/19 14:44:39;;;;;;;1.00;0.53;;;;;;;15.00;29.20;99076.34;5133880;27;38892;-77
2022/02/19 14:47:06;;;;;;;0.87;0.50;;;;;;;14.40;30.17;99080.03;5133791;27;40450;-77
2022/02/19 14:49:35;;;;;;;3.40;0.57;;;;;;;14.05;30.72;99093.28;5133932;27;43491;-77
2022/02/19 14:52:05;;;;;;;1.03;0.67;;;;;;;13.76;30.56;99094.53;5133524;27;42337;-77
2022/02/19 14:54:33;;;;;;;2.07;0.80;;;;;;;13.51;31.35;99095.41;5134584;27;39856;-77
2022/02/19 14:57:00;;;;;;;2.07;0.60;;;;;;;13.24;31.68;99091.06;5132782;27;41723;-77
2022/02/19 14:59:29;;;;;;;0.90;0.40;;;;;;;13.00;32.58;99075.91;5133751;27;45743;-76
2022/02/19 15:01:57;;;;;;;0.93;0.60;;;;;;;12.78;33.52;99063.25;5115987;27;43405;-76
2022/02/19 15:04:24;;;;;;;1.30;0.43;;;;;;;12.55;33.31;99064.81;5132865;27;39898;-77
2022/02/19 15:06:52;;;;;;;1.87;0.40;;;;;;;12.36;33.27;99067.88;5134570;27;41927;-77
2022/02/19 15:09:22;;;;;;;0.87;0.47;;;;;;;12.12;33.72;99053.53;5116369;27;44175;-78
2022/02/19 15:11:49;;;;;;;1.77;0.60;;;;;;;12.06;33.83;99062.75;5133201;27;43143;-77
2022/02/19 15:14:17;;;;;;;0.80;0.50;;;;;;;11.97;34.38;99051.91;5133633;27;39892;-77
2022/02/19 15:16:46;;;;;;;1.80;0.53;;;;;;;11.55;34.25;99005.91;5134666;27;41553;-77
2022/02/19 15:19:15;;;;;;;3.27;0.70;;;;;;;11.81;34.69;99050.22;5133137;27;41782;-77
2022/02/19 15:21:43;;;;;;;0.43;0.40;;;;;;;11.86;34.77;99045.50;5132734;27;41168;-77
2022/02/19 15:24:11;;;;;;;0.93;0.53;;;;;;;11.78;34.39;99042.44;5115824;27;40431;-77
2022/02/19 15:26:41;;;;;;;0.50;0.50;;;;;;;11.77;34.18;99037.25;5134545;27;41725;-77
2022/02/19 15:29:09;;;;;;;3.57;1.13;;;;;;;11.77;34.10;99039.91;5134543;27;42519;-77
2022/02/19 15:31:36;;;;;;;0.80;0.73;;;;;;;11.69;35.23;99023.59;5133375;27;42969;-78
2022/02/19 15:34:05;;;;;;;2.00;0.60;;;;;;;11.62;34.95;99017.81;5116054;27;39854;-77
2022/02/19 15:36:33;;;;;;;0.43;0.40;;;;;;;11.59;34.72;99023.34;5134445;27;42482;-78
2022/02/19 15:39:00;;;;;;;2.10;0.57;;;;;;;11.46;35.29;99019.75;5132915;27;41546;-77
2022/02/19 15:41:28;;;;;;;1.67;0.93;;;;;;;11.25;35.06;99023.78;5133143;27;40983;-77
2022/02/19 15:43:57;;;;;;;1.17;0.50;;;;;;;11.12;35.28;99013.09;5115254;27;39100;-76
2022/02/19 15:46:25;;;;;;;1.43;0.50;;;;;;;11.02;35.44;99028.69;5133103;27;40762;-76
2022/02/19 15:48:54;;;;;;;0.83;0.53;;;;;;;10.90;35.47;99018.84;5132726;27;43931;-77
2022/02/19 15:51:22;;;;;;;2.93;1.03;;;;;;;10.71;36.01;99011.16;5133045;27;42400;-77
2022/02/19 15:53:49;;;;;;;1.57;0.67;;;;;;;10.71;36.59;99020.91;5133956;27;39914;-77
2022/02/19 15:56:17;;;;;;;1.57;0.50;;;;;;;10.64;36.64;99014.25;5133227;27;43345;-76
2022/02/19 15:58:45;;;;;;;2.10;0.60;;;;;;;10.38;37.23;98990.22;5132429;27;41823;-77
2022/02/19 16:01:15;;;;;;;1.40;0.70;;;;;;;10.38;37.19;99008.75;5132271;27;42262;-77
2022/02/19 16:03:42;;;;;;;1.90;0.50;;;;;;;10.37;37.42;99008.84;5114889;27;39095;-78
2022/02/19 16:06:10;;;;;;;1.50;0.50;;;;;;;10.30;37.94;99008.34;5133837;27;41738;-77
2022/02/19 16:08:38;;;;;;;1.17;0.50;;;;;;;10.26;37.60;99009.44;5131755;27;42914;-77
2022/02/19 16:11:06;;;;;;;2.07;0.50;;;;;;;10.20;38.05;99007.19;5114984;27;42214;-77
2022/02/19 16:13:33;;;;;;;2.43;0.70;;;;;;;10.14;38.54;99012.78;5132178;27;40995;-77
2022/02/19 16:16:01;;;;;;;1.50;0.47;;;;;;;10.09;38.31;99006.91;5115172;27;41385;-77
2022/02/19 16:18:30;;;;;;;0.50;0.50;;;;;;;10.05;38.67;99002.75;5114947;27;43203;-77
2022/02/19 16:20:58;;;;;;;1.13;0.57;;;;;;;9.98;38.63;98998.75;5132992;27;43202;-77
2022/02/19 16:23:25;;;;;;;1.60;0.63;;;;;;;9.95;38.87;98985.69;5132077;27;39854;-77
2022/02/19 16:25:53;;;;;;;1.43;0.57;;;;;;;9.91;38.38;98963.00;5132278;27;42929;-77
2022/02/19 16:28:21;;;;;;;0.60;0.60;;;;;;;9.86;39.05;98951.84;5131877;27;41728;-77
2022/02/19 16:30:49;;;;;;;1.13;0.60;;;;;;;9.77;39.42;98952.38;5131797;27;42975;-77
2022/02/19 16:33:17;;;;;;;1.10;0.60;;;;;;;9.35;39.55;98906.31;5114814;27;38886;-77
2022/02/19 16:35:46;;;;;;;0.60;0.50;;;;;;;9.58;39.57;98956.06;5132386;27;41615;-77
2022/02/19 16:38:14;;;;;;;2.80;0.70;;;;;;;9.46;40.37;98951.47;5131821;27;42796;-77
2022/02/19 16:40:43;;;;;;;0.97;0.53;;;;;;;9.22;39.84;98924.66;5131829;27;42187;-77
2022/02/19 16:43:11;;;;;;;1.50;0.60;;;;;;;9.28;40.63;98944.56;5148557;27;40624;-77
2022/02/19 16:45:41;;;;;;;1.70;0.67;;;;;;;9.17;40.21;98939.88;5114824;27;40582;-78
2022/02/19 16:48:10;;;;;;;2.17;0.60;;;;;;;8.90;40.28;98931.69;5131662;27;42276;-78
2022/02/19 16:50:39;;;;;;;0.93;0.50;;;;;;;8.89;40.25;98945.00;5114820;27;41203;-77
2022/02/19 16:53:09;;;;;;;2.30;0.67;;;;;;;8.73;40.68;98944.97;5131883;27;39917;-77
2022/02/19 16:55:37;;;;;;;1.63;0.80;;;;;;;8.56;41.53;98937.06;5131160;27;41661;-77
2022/02/19 16:58:06;;;;;;;2.83;0.87;;;;;;;8.49;41.65;98938.34;5131443;27;42473;-76
2022/02/19 17:00:34;;;;;;;3.60;0.90;;;;;;;8.39;42.18;98940.63;5128559;27;43531;-77
2022/02/19 17:03:02;;;;;;;2.90;0.80;;;;;;;8.29;42.11;98940.19;5122525;27;40177;-75
2022/02/19 17:05:29;;;;;;;2.13;0.80;;;;;;;8.19;42.13;98943.38;5131805;27;40505;-78
2022/02/19 17:07:57;;;;;;;3.03;1.27;;;;;;;8.09;42.22;98937.75;5110851;28;41888;-77
2022/02/19 17:10:26;;;;;;;1.53;0.80;;;;;;;8.01;42.63;98934.66;5112494;28;43323;-76
2022/02/19 17:12:54;;;;;;;2.27;0.93;;;;;;;7.77;43.28;98901.63;5111296;28;39808;-77
2022/02/19 17:15:22;;;;;;;0.87;0.87;;;;;;;7.91;43.59;98922.88;5110966;28;40702;-77
2022/02/19 17:17:50;;;;;;;1.17;1.00;;;;;;;7.85;43.73;98917.88;5112104;28;43841;-78
2022/02/19 17:20:19;;;;;;;1.23;0.80;;;;;;;7.77;44.55;98910.38;5131912;27;41301;-77
2022/02/19 17:22:46;;;;;;;4.23;0.80;;;;;;;7.70;44.62;98901.06;5131560;27;39725;-77
2022/02/19 17:25:14;;;;;;;1.67;0.83;;;;;;;7.59;45.51;98898.09;5134040;27;41467;-77
2022/02/19 17:27:43;;;;;;;0.90;0.60;;;;;;;7.54;45.44;98903.59;5135142;27;42730;-77
2022/02/19 17:30:12;;;;;;;2.70;0.70;;;;;;;7.51;45.31;98911.66;5117528;27;43777;-77
2022/02/19 17:32:39;;;;;;;0.97;0.70;;;;;;;7.47;45.58;98912.75;5117312;27;38779;-77
2022/02/19 17:35:08;;;;;;;3.87;0.80;;;;;;;7.42;45.78;98917.38;5134894;27;41011;-76
2022/02/19 17:37:36;;;;;;;2.60;0.70;;;;;;;7.38;45.79;98917.59;5134394;27;42905;-78
2022/02/19 17:40:06;;;;;;;1.77;0.90;;;;;;;7.31;46.11;98914.41;5134382;27;42005;-77
2022/02/19 17:42:34;;;;;;;1.17;0.83;;;;;;;7.28;46.05;98913.72;5134540;27;40917;-76
2022/02/19 17:45:04;;;;;;;2.20;0.60;;;;;;;7.05;46.44;98877.94;5135010;27;41868;-77
2022/02/19 17:47:32;;;;;;;1.73;0.80;;;;;;;7.19;46.17;98912.34;5117404;27;42005;-76
2022/02/19 17:50:00;;;;;;;0.90;0.70;;;;;;;7.14;46.94;98914.38;5116470;27;41210;-77
2022/02/19 17:52:28;;;;;;;1.57;0.83;;;;;;;7.09;46.46;98911.94;5117309;27;39062;-77
2022/02/19 17:54:56;;;;;;;2.03;0.97;;;;;;;7.04;47.14;98913.97;5134709;27;42454;-77
2022/02/19 17:57:23;;;;;;;1.80;0.80;;;;;;;6.99;47.24;98909.81;5116537;27;44675;-77
2022/02/19 17:59:51;;;;;;;1.83;0.70;;;;;;;6.93;47.66;98899.56;5132788;27;42265;-77
2022/02/19 18:02:20;;;;;;;3.87;1.23;;;;;;;6.90;47.31;98907.63;5134149;27;40221;-78
2022/02/19 18:04:48;;;;;;;1.73;0.90;;;;;;;6.79;47.44;98897.63;5117473;27;40777;-77
2022/02/19 18:07:16;;;;;;;3.50;1.10;;;;;;;6.72;47.69;98897.03;5134243;27;43719;-77
2022/02/19 18:09:44;;;;;;;2.10;0.83;;;;;;;6.76;48.43;98910.91;5134211;27;42229;-78
2022/02/19 18:12:12;;;;;;;6.40;0.90;;;;;;;6.73;48.16;98909.25;5134222;27;39971;-77
2022/02/19 18:14:39;;;;;;;1.00;0.80;;;;;;;6.68;48.37;98898.06;5134179;27;41896;-77
2022/02/19 18:17:07;;;;;;;1.40;0.90;;;;;;;6.66;48.91;98905.22;5116812;27;42853;-77
2022/02/19 18:19:36;;;;;;;1.23;0.67;;;;;;;6.59;48.45;98903.78;5116458;27;42314;-78
2022/02/19 18:22:05;;;;;;;2.87;0.90;;;;;;;6.62;48.59;98905.41;5116556;27;39168;-76
2022/02/19 18:24:33;;;;;;;1.43;0.70;;;;;;;6.61;48.77;98899.31;5134401;27;41529;-77
2022/02/19 18:27:00;;;;;;;2.43;0.90;;;;;;;6.59;49.21;98890.63;5116379;27;42776;-77
2022/02/19 18:29:28;;;;;;;2.00;0.70;;;;;;;6.54;49.67;98890.00;5116404;27;43532;-76
2022/02/19 18:31:56;;;;;;;1.50;0.93;;;;;;;6.54;49.11;98892.63;5133481;27;40551;-77
2022/02/19 18:34:23;;;;;;;2.67;0.53;;;;;;;6.54;49.15;98897.03;5116502;27;40515;-76
2022/02/19 18:36:52;;;;;;;2.00;0.67;;;;;;;6.49;49.33;98884.94;5133808;27;42125;-77
2022/02/19 18:39:20;;;;;;;1.07;0.60;;;;;;;6.45;49.52;98877.22;5116529;27;41547;-76
2022/02/19 18:41:48;;;;;;;2.30;0.87;;;;;;;6.33;49.33;98859.38;5135232;27;40958;-76
2022/02/19 18:44:16;;;;;;;4.30;0.90;;;;;;;6.39;49.37;98882.78;5133431;27;42006;-77
2022/02/19 18:46:46;;;;;;;1.03;0.80;;;;;;;6.36;49.57;98882.91;5133657;27;42715;-77
2022/02/19 18:49:14;;;;;;;1.50;0.80;;;;;;;6.32;50.37;98881.34;5133447;27;42181;-77
2022/02/19 18:51:44;;;;;;;0.53;0.53;;;;;;;6.29;50.17;98876.25;5133364;27;40805;-77
2022/02/19 18:54:14;;;;;;;3.53;0.80;;;;;;;6.25;50.29;98880.78;5133971;27;41724;-77
2022/02/19 18:56:42;;;;;;;3.67;0.73;;;;;;;6.09;50.14;98853.44;5115886;27;41957;-77
2022/02/19 18:59:10;;;;;;;0.67;0.67;;;;;;;6.11;50.25;98862.97;5132943;27;41338;-76
2022/02/19 19:01:38;;;;;;;1.37;0.87;;;;;;;6.10;50.60;98866.53;5116424;27;39236;-76
2022/02/19 19:04:05;;;;;;;1.60;0.90;;;;;;;5.98;51.14;98856.56;5115523;27;40890;-77
2022/02/19 19:06:35;;;;;;;1.33;0.50;;;;;;;6.07;50.82;98871.91;5115929;27;42843;-77
2022/02/19 19:09:03;;;;;;;4.60;1.10;;;;;;;5.94;51.14;98862.84;5115550;27;41219;-77
2022/02/19 19:11:32;;;;;;;2.20;0.70;;;;;;;5.96;51.02;98865.41;5133468;27;40464;-76
2022/02/19 19:14:00;;;;;;;2.53;1.17;;;;;;;6.02;51.43;98873.06;5132672;27;42255;-78
2022/02/19 19:16:28;;;;;;;2.63;0.63;;;;;;;5.98;51.75;98860.94;5133226;27;42083;-77
2022/02/19 19:18:55;;;;;;;0.63;0.60;;;;;;;5.96;51.27;98850.50;5132605;27;42077;-78
2022/02/19 19:21:23;;;;;;;1.03;0.70;;;;;;;5.67;51.28;98808.88;5115923;27;39437;-77
2022/02/19 19:23:51;;;;;;;2.33;0.87;;;;;;;5.86;51.54;98833.41;5132687;27;40717;-77
2022/02/19 19:26:19;;;;;;;0.77;0.77;;;;;;;6.01;51.55;98845.06;5116440;27;41863;-77
2022/02/19 19:28:48;;;;;;;1.87;1.47;;;;;;;6.00;51.71;98844.19;5115856;27;41824;-79
2022/02/19 19:31:18;;;;;;;2.07;0.93;;;;;;;5.99;51.82;98841.63;5133090;27;38977;-77
2022/02/19 19:33:45;;;;;;;1.77;0.80;;;;;;;5.98;51.92;98832.91;5132957;27;41659;-78
2022/02/19 19:36:13;;;;;;;1.70;1.03;;;;;;;5.88;51.72;98823.72;5133112;27;42907;-77
2022/02/19 19:38:41;;;;;;;1.37;0.80;;;;;;;6.02;51.98;98836.25;5132730;27;42282;-77
2022/02/19 19:41:09;;;;;;;1.87;0.80;;;;;;;6.01;51.92;98829.28;5115901;27;39969;-78
2022/02/19 19:43:36;;;;;;;1.50;0.83;;;;;;;5.98;51.73;98814.50;5131625;27;40483;-78
2022/02/19 19:46:05;;;;;;;2.60;0.83;;;;;;;6.01;51.95;98811.75;5115733;27;42690;-78
2022/02/19 19:48:39;;;;;;;4.03;1.03;;;;;;;6.04;52.04;98814.25;5131374;27;41643;-78
2022/02/19 19:51:07;;;;;;;0.83;0.70;;;;;;;6.06;52.51;98803.63;5115883;27;40122;-77
2022/02/19 19:53:34;;;;;;;2.77;0.97;;;;;;;5.99;52.46;98789.91;5132395;27;42574;-79
2022/02/19 19:56:02;;;;;;;3.03;0.80;;;;;;;6.09;52.31;98801.72;5129249;27;42801;-78
2022/02/19 19:58:30;;;;;;;2.20;1.00;;;;;;;6.09;52.52;98806.97;5103795;27;42416;-78
2022/02/19 20:00:58;;;;;;;3.13;0.80;;;;;;;5.97;52.79;98797.03;5129283;27;40688;-77
2022/02/19 20:03:27;;;;;;;1.33;0.70;;;;;;;6.09;52.62;98800.88;5096168;27;41327;-76
2022/02/19 20:05:55;;;;;;;2.50;0.83;;;;;;;6.10;52.49;98800.81;5108384;28;42026;-77
2022/02/19 20:08:23;;;;;;;2.53;1.00;;;;;;;5.97;52.63;98765.47;5103133;27;43569;-77
2022/02/19 20:10:52;;;;;;;1.33;0.83;;;;;;;6.15;52.62;98783.97;5118482;27;39978;-79
2022/02/19 20:13:20;;;;;;;2.00;0.67;;;;;;;6.13;52.93;98784.91;5127895;27;40610;-79
2022/02/19 20:15:48;;;;;;;1.10;0.60;;;;;;;6.15;52.73;98779.56;5131013;27;41707;-76
2022/02/19 20:18:17;;;;;;;3.43;0.83;;;;;;;6.10;52.49;98766.63;5112696;27;42679;-81
2022/02/19 20:20:46;;;;;;;2.53;0.73;;;;;;;6.10;52.35;98766.63;5125149;27;41323;-76
2022/02/19 20:23:14;;;;;;;3.33;1.00;;;;;;;6.07;52.55;98756.25;5134818;27;42524;-76
2022/02/19 20:25:42;;;;;;;1.70;1.13;;;;;;;6.08;52.67;98760.56;5130486;27;44118;-79
2022/02/19 20:28:09;;;;;;;1.73;1.00;;;;;;;5.99;52.76;98747.88;5112724;27;42778;-75
2022/02/19 20:30:37;;;;;;;4.23;0.97;;;;;;;5.95;52.97;98743.66;5128171;27;40186;-77
2022/02/19 20:33:05;;;;;;;1.33;0.83;;;;;;;6.15;52.89;98757.69;5130829;27;42595;-77